createdAt,value
2022-10-22T00:01:20.177Z,99664.69
2022-10-22T00:03:47.914Z,99666.72
2022-10-22T00:06:15.474Z,99662.88
2022-10-22T00:08:43.236Z,99662.75
2022-10-22T00:11:12.976Z,99664.34
2022-10-22T00:13:42.792Z,99656.13
2022-10-22T00:16:10.949Z,99659.44
2022-10-22T00:18:38.994Z,99650.84
2022-10-22T00:21:07.659Z,99644.38
2022-10-22T00:23:35.765Z,99640.88
2022-10-22T00:26:03.274Z,99635.81
2022-10-22T00:28:30.833Z,99647.91
2022-10-22T00:31:01.590Z,99642.78
2022-10-22T00:33:30.362Z,99645.59
2022-10-22T00:35:58.054Z,99636.88
2022-10-22T00:38:25.675Z,99640.56
2022-10-22T00:40:53.218Z,99626.97
2022-10-22T00:43:21.361Z,99628.22
2022-10-22T00:45:48.937Z,99630.00
2022-10-22T00:48:20.942Z,99627.41
2022-10-22T00:50:55.530Z,99623.88
2022-10-22T00:53:27.019Z,99625.53
2022-10-22T00:55:55.743Z,99627.41
2022-10-22T00:58:29.052Z,99623.19
2022-10-22T01:00:58.030Z,99615.09
2022-10-22T01:03:27.032Z,99628.22
2022-10-22T01:05:58.002Z,99627.78
2022-10-22T01:08:33.867Z,99618.38
2022-10-22T01:11:13.580Z,99623.78
2022-10-22T01:13:54.372Z,99623.44
2022-10-22T01:16:31.365Z,99622.72
2022-10-22T01:19:12.360Z,99629.41
2022-10-22T01:21:44.939Z,99631.88
2022-10-22T01:24:45.960Z,99629.66
2022-10-22T01:27:25.239Z,99640.22
2022-10-22T01:29:57.595Z,99643.41
2022-10-22T01:32:27.042Z,99642.19
2022-10-22T01:34:58.175Z,99635.88
2022-10-22T01:37:30.446Z,99648.78
2022-10-22T01:40:00.586Z,99640.22
2022-10-22T01:42:28.298Z,99648.66
2022-10-22T01:44:57.187Z,99652.19
2022-10-22T01:47:40.224Z,99647.03
2022-10-22T01:50:24.995Z,99648.56
2022-10-22T01:53:02.547Z,99651.50
2022-10-22T01:55:37.282Z,99652.19
2022-10-22T01:58:19.447Z,99650.44
2022-10-22T02:00:55.620Z,99656.06
2022-10-22T02:03:29.158Z,99661.34
2022-10-22T02:06:00.686Z,99658.88
2022-10-22T02:08:32.048Z,99656.06
2022-10-22T02:11:01.853Z,99659.47
2022-10-22T02:13:32.909Z,99654.16
2022-10-22T02:16:04.441Z,99653.72
2022-10-22T02:18:36.414Z,99659.09
2022-10-22T02:23:36.279Z,99661.19
2022-10-22T02:26:11.051Z,99663.28
2022-10-22T02:28:45.472Z,99666.47
2022-10-22T02:31:19.192Z,99673.50
2022-10-22T02:33:50.029Z,99677.50
2022-10-22T02:36:18.936Z,99677.03
2022-10-22T02:38:48.574Z,99678.91
2022-10-22T02:41:17.008Z,99679.13
2022-10-22T02:43:46.500Z,99679.38
2022-10-22T02:46:15.789Z,99676.56
2022-10-22T02:48:43.494Z,99670.56
2022-10-22T02:51:11.023Z,99675.50
2022-10-22T02:53:38.575Z,99679.81
2022-10-22T02:56:06.674Z,99678.56
2022-10-22T02:58:34.265Z,99671.13
2022-10-22T03:01:02.143Z,99663.63
2022-10-22T03:03:31.099Z,99665.97
2022-10-22T03:05:58.723Z,99668.66
2022-10-22T03:08:26.449Z,99670.91
2022-10-22T03:10:54.156Z,99680.88
2022-10-22T03:13:21.782Z,99682.66
2022-10-22T03:15:50.235Z,99690.75
2022-10-22T03:18:17.899Z,99695.56
2022-10-22T03:20:46.878Z,99691.56
2022-10-22T03:23:17.778Z,99695.91
2022-10-22T03:25:47.955Z,99689.94
2022-10-22T03:28:18.084Z,99692.50
2022-10-22T03:30:45.647Z,99687.34
2022-10-22T03:33:13.162Z,99697.56
2022-10-22T03:35:46.404Z,99707.28
2022-10-22T03:38:15.878Z,99714.09
2022-10-22T03:40:45.319Z,99727.16
2022-10-22T03:43:13.461Z,99721.88
2022-10-22T03:45:40.979Z,99727.84
2022-10-22T03:48:08.761Z,99727.84
2022-10-22T03:50:36.329Z,99745.09
2022-10-22T03:53:04.504Z,99749.69
2022-10-22T03:55:33.384Z,99741.47
2022-10-22T03:58:00.925Z,99743.94
2022-10-22T04:00:28.500Z,99743.78
2022-10-22T04:02:56.070Z,99740.63
2022-10-22T04:05:23.588Z,99750.13
2022-10-22T04:07:51.142Z,99759.63
2022-10-22T04:10:18.938Z,99764.19
2022-10-22T04:12:49.600Z,99761.31
2022-10-22T04:15:17.441Z,99769.06
2022-10-22T04:17:45.152Z,99773.03
2022-10-22T04:20:12.785Z,99760.69
2022-10-22T04:22:40.347Z,99764.91
2022-10-22T04:25:08.480Z,99772.63
2022-10-22T04:27:37.754Z,99781.19
2022-10-22T04:30:08.175Z,99785.50
2022-10-22T04:32:35.767Z,99789.72
2022-10-22T04:35:03.457Z,99791.66
2022-10-22T04:37:32.810Z,99785.31
2022-10-22T04:40:00.341Z,99778.63
2022-10-22T04:42:28.018Z,99791.28
2022-10-22T04:44:55.530Z,99791.53
2022-10-22T04:47:24.450Z,99783.19
2022-10-22T04:49:51.977Z,99786.25
2022-10-22T04:52:19.539Z,99786.78
2022-10-22T04:54:48.072Z,99788.44
2022-10-22T04:57:15.609Z,99788.19
2022-10-22T04:59:43.156Z,99781.91
2022-10-22T05:02:10.662Z,99782.72
2022-10-22T05:04:39.522Z,99780.28
2022-10-22T05:07:07.036Z,99777.09
2022-10-22T05:09:34.534Z,99790.38
2022-10-22T05:12:02.081Z,99779.56
2022-10-22T05:14:29.720Z,99784.78
2022-10-22T05:16:57.248Z,99795.56
2022-10-22T05:19:27.517Z,99797.38
2022-10-22T05:21:58.767Z,99800.19
2022-10-22T05:24:27.547Z,99797.94
2022-10-22T05:26:57.472Z,99806.50
2022-10-22T05:29:25.710Z,99812.03
2022-10-22T05:31:53.406Z,99821.78
2022-10-22T05:34:21.087Z,99814.38
2022-10-22T05:36:48.706Z,99812.38
2022-10-22T05:39:17.665Z,99817.78
2022-10-22T05:41:45.221Z,99810.97
2022-10-22T05:44:13.886Z,99822.09
2022-10-22T05:46:43.207Z,99821.72
2022-10-22T05:49:14.776Z,99823.44
2022-10-22T05:51:42.466Z,99825.25
2022-10-22T05:54:16.551Z,99831.53
2022-10-22T05:56:45.501Z,99844.44
2022-10-22T05:59:13.044Z,99841.50
2022-10-22T06:01:41.187Z,99834.47
2022-10-22T06:04:11.669Z,99842.09
2022-10-22T06:06:42.003Z,99849.53
2022-10-22T06:09:16.721Z,99848.50
2022-10-22T06:11:45.901Z,99844.88
2022-10-22T06:14:13.841Z,99852.38
2022-10-22T06:16:41.818Z,99870.91
2022-10-22T06:19:10.950Z,99876.44
2022-10-22T06:21:38.935Z,99867.28
2022-10-22T06:24:07.261Z,99869.47
2022-10-22T06:26:34.852Z,99870.16
2022-10-22T06:29:03.783Z,99874.78
2022-10-22T06:31:36.524Z,99874.69
2022-10-22T06:34:04.188Z,99878.78
2022-10-22T06:36:31.926Z,99883.88
2022-10-22T06:38:59.652Z,99889.72
2022-10-22T06:41:29.873Z,99900.97
2022-10-22T06:43:58.365Z,99894.91
2022-10-22T06:46:27.826Z,99909.88
2022-10-22T06:48:57.018Z,99908.59
2022-10-22T06:51:24.909Z,99906.72
2022-10-22T06:53:52.735Z,99908.03
2022-10-22T06:56:23.560Z,99909.66
2022-10-22T06:58:52.296Z,99916.63
2022-10-22T07:01:21.912Z,99917.22
2022-10-22T07:03:52.140Z,99917.72
2022-10-22T07:06:20.333Z,99921.88
2022-10-22T07:08:48.190Z,99926.88
2022-10-22T07:11:18.486Z,99933.75
2022-10-22T07:13:46.588Z,99933.19
2022-10-22T07:16:14.779Z,99932.63
2022-10-22T07:18:44.515Z,99938.19
2022-10-22T07:21:15.038Z,99939.22
2022-10-22T07:23:42.975Z,99939.25
2022-10-22T07:26:10.866Z,99947.53
2022-10-22T07:28:40.923Z,99948.34
2022-10-22T07:31:09.776Z,99952.50
2022-10-22T07:33:38.394Z,99955.47
2022-10-22T07:36:08.493Z,99960.34
2022-10-22T07:38:37.649Z,99959.88
2022-10-22T07:41:05.687Z,99977.13
2022-10-22T07:43:33.292Z,99971.91
2022-10-22T07:46:02.700Z,99979.22
2022-10-22T07:48:30.304Z,99985.44
2022-10-22T07:50:58.249Z,99979.81
2022-10-22T07:53:25.984Z,99984.19
2022-10-22T07:55:54.977Z,99988.34
2022-10-22T07:58:24.893Z,99978.13
2022-10-22T08:00:52.561Z,99986.53
2022-10-22T08:03:20.142Z,99986.25
2022-10-22T08:05:48.521Z,99985.44
2022-10-22T08:08:18.132Z,99988.56
2022-10-22T08:10:46.872Z,99994.50
2022-10-22T08:13:16.238Z,99987.53
2022-10-22T08:18:16.880Z,99994.00
2022-10-22T08:20:44.759Z,100000.34
2022-10-22T08:23:12.434Z,99991.75
2022-10-22T08:25:40.014Z,99997.50
2022-10-22T08:28:07.572Z,99992.19
2022-10-22T08:30:38.533Z,99998.09
2022-10-22T08:33:06.668Z,99995.63
2022-10-22T08:35:34.374Z,99989.81
2022-10-22T08:38:02.062Z,99996.16
2022-10-22T08:40:33.357Z,100001.38
2022-10-22T08:43:24.205Z,100002.56
2022-10-22T08:46:05.988Z,100001.31
2022-10-22T08:48:44.129Z,100010.75
2022-10-22T08:51:15.801Z,100012.34
2022-10-22T08:53:52.610Z,100009.47
2022-10-22T08:56:24.166Z,100016.91
2022-10-22T08:58:56.871Z,100017.72
2022-10-22T09:01:34.079Z,100015.63
2022-10-22T09:04:07.735Z,100023.56
2022-10-22T09:06:37.753Z,100023.16
2022-10-22T09:09:12.091Z,100012.91
2022-10-22T09:11:41.918Z,100015.97
2022-10-22T09:17:03.332Z,100023.22
2022-10-22T09:19:38.613Z,100019.50
2022-10-22T09:22:16.440Z,100025.63
2022-10-22T09:24:46.764Z,100032.19
2022-10-22T09:27:17.238Z,100028.34
2022-10-22T09:29:46.051Z,100022.50
2022-10-22T09:32:15.588Z,100028.63
2022-10-22T09:34:45.771Z,100030.41
2022-10-22T09:37:16.848Z,100035.63
2022-10-22T09:39:47.177Z,100032.53
2022-10-22T09:42:16.952Z,100037.78
2022-10-22T09:44:47.776Z,100040.75
2022-10-22T09:47:42.883Z,100038.28
2022-10-22T09:50:22.996Z,100048.31
2022-10-22T09:53:01.640Z,100043.22
2022-10-22T09:55:29.570Z,100046.50
2022-10-22T09:57:59.757Z,100053.56
2022-10-22T10:00:28.731Z,100057.47
2022-10-22T10:02:58.839Z,100064.81
2022-10-22T10:05:29.132Z,100061.38
2022-10-22T10:07:56.875Z,100051.34
2022-10-22T10:10:34.815Z,100048.56
2022-10-22T10:13:15.754Z,100060.41
2022-10-22T10:15:50.023Z,100057.44
2022-10-22T10:18:31.414Z,100051.47
2022-10-22T10:21:10.512Z,100056.06
2022-10-22T10:23:49.514Z,100055.75
2022-10-22T10:26:23.306Z,100053.28
2022-10-22T10:29:09.979Z,100062.06
2022-10-22T10:31:49.759Z,100059.59
2022-10-22T10:34:30.762Z,100064.84
2022-10-22T10:37:14.570Z,100063.53
2022-10-22T10:40:03.895Z,100061.19
2022-10-22T10:42:37.734Z,100057.56
2022-10-22T10:45:17.507Z,100059.19
2022-10-22T10:48:08.431Z,100060.91
2022-10-22T10:50:50.589Z,100062.53
2022-10-22T10:53:26.566Z,100063.50
2022-10-22T10:56:02.722Z,100066.88
2022-10-22T10:58:40.271Z,100065.72
2022-10-22T11:01:16.976Z,100065.25
2022-10-22T11:04:18.833Z,100058.41
2022-10-22T11:06:47.922Z,100061.78
2022-10-22T11:09:25.612Z,100062.03
2022-10-22T11:11:58.302Z,100061.22
2022-10-22T11:14:32.958Z,100058.34
2022-10-22T11:17:06.049Z,100050.91
2022-10-22T11:19:57.816Z,100047.47
2022-10-22T11:22:35.171Z,100053.63
2022-10-22T11:25:15.204Z,100046.16
2022-10-22T11:27:48.874Z,100046.50
2022-10-22T11:30:18.900Z,100040.47
2022-10-22T11:32:50.575Z,100048.41
2022-10-22T11:35:25.835Z,100045.81
2022-10-22T11:37:57.105Z,100049.44
2022-10-22T11:40:34.262Z,100045.81
2022-10-22T11:43:06.963Z,100040.53
2022-10-22T11:45:38.987Z,100040.03
2022-10-22T11:48:16.552Z,100037.69
2022-10-22T11:50:53.002Z,100041.94
2022-10-22T11:53:31.588Z,100040.00
2022-10-22T11:56:04.493Z,100041.34
2022-10-22T11:58:44.240Z,100045.81
2022-10-22T12:01:23.895Z,100038.09
2022-10-22T12:03:53.589Z,100039.88
2022-10-22T12:06:24.275Z,100040.25
2022-10-22T12:09:01.273Z,100039.31
2022-10-22T12:11:36.406Z,100044.66
2022-10-22T12:14:17.075Z,100032.94
2022-10-22T12:17:02.238Z,100037.00
2022-10-22T12:19:32.816Z,100029.16
2022-10-22T12:22:07.425Z,100028.69
2022-10-22T12:24:40.474Z,100033.97
2022-10-22T12:27:22.223Z,100028.22
2022-10-22T12:29:54.540Z,100025.97
2022-10-22T12:32:22.319Z,100020.59
2022-10-22T12:34:51.516Z,100020.81
2022-10-22T12:37:20.566Z,100022.53
2022-10-22T12:39:49.510Z,100025.69
2022-10-22T12:42:19.222Z,100027.31
2022-10-22T12:44:46.874Z,100026.13
2022-10-22T12:47:17.685Z,100030.16
2022-10-22T12:49:48.845Z,100033.09
2022-10-22T12:52:19.676Z,100026.03
2022-10-22T12:54:54.438Z,100030.72
2022-10-22T12:57:24.182Z,100030.19
2022-10-22T12:59:52.986Z,100026.94
2022-10-22T13:02:24.356Z,100034.00
2022-10-22T13:05:27.338Z,100023.75
2022-10-22T13:08:02.570Z,100029.50
2022-10-22T13:10:36.688Z,100027.38
2022-10-22T13:13:06.739Z,100024.59
2022-10-22T13:15:40.177Z,100027.72
2022-10-22T13:18:17.765Z,100024.03
2022-10-22T13:20:53.152Z,100017.09
2022-10-22T13:23:22.490Z,100019.91
2022-10-22T13:26:01.210Z,100026.09
2022-10-22T13:28:30.142Z,100024.47
2022-10-22T13:31:00.205Z,100023.97
2022-10-22T13:33:31.059Z,100021.59
2022-10-22T13:35:59.232Z,100027.84
2022-10-22T13:38:28.282Z,100025.03
2022-10-22T13:40:56.474Z,100024.91
2022-10-22T13:43:26.066Z,100008.75
2022-10-22T13:45:56.792Z,100015.38
2022-10-22T13:48:25.960Z,100018.28
2022-10-22T13:50:54.351Z,100015.63
2022-10-22T13:53:24.608Z,100012.88
2022-10-22T13:55:52.213Z,100016.06
2022-10-22T13:58:21.285Z,100015.13
2022-10-22T14:00:54.330Z,100017.47
2022-10-22T14:03:24.636Z,100025.13
2022-10-22T14:05:52.251Z,100019.38
2022-10-22T14:08:23.138Z,100016.50
2022-10-22T14:10:50.659Z,100020.13
2022-10-22T14:13:21.228Z,100017.81
2022-10-22T14:15:52.283Z,100019.97
2022-10-22T14:18:25.452Z,100026.34
2022-10-22T14:20:55.003Z,100019.97
2022-10-22T14:23:25.231Z,100026.56
2022-10-22T14:25:52.958Z,100032.22
2022-10-22T14:28:20.822Z,100034.22
2022-10-22T14:30:50.615Z,100031.56
2022-10-22T14:33:23.158Z,100032.91
2022-10-22T14:35:53.472Z,100036.47
2022-10-22T14:38:21.385Z,100035.19
2022-10-22T14:40:49.603Z,100036.31
2022-10-22T14:43:21.825Z,100032.16
2022-10-22T14:45:50.862Z,100033.56
2022-10-22T14:50:48.316Z,100038.91
2022-10-22T14:53:17.597Z,100029.41
2022-10-22T14:55:49.163Z,100037.66
2022-10-22T14:58:16.880Z,100043.13
2022-10-22T15:00:45.215Z,100042.47
2022-10-22T15:03:14.120Z,100043.97
2022-10-22T15:05:43.921Z,100049.75
2022-10-22T15:08:11.739Z,100049.88
2022-10-22T15:10:40.100Z,100044.09
2022-10-22T15:13:07.895Z,100039.56
2022-10-22T15:15:39.598Z,100039.69
2022-10-22T15:18:07.723Z,100037.81
2022-10-22T15:20:36.757Z,100034.81
2022-10-22T15:23:04.344Z,100034.47
2022-10-22T15:25:31.934Z,100041.47
2022-10-22T15:28:02.093Z,100038.19
2022-10-22T15:30:36.685Z,100044.41
2022-10-22T15:33:04.297Z,100048.75
2022-10-22T15:35:31.937Z,100051.13
2022-10-22T15:38:00.862Z,100051.41
2022-10-22T15:40:28.441Z,100059.34
2022-10-22T15:42:56.008Z,100052.16
2022-10-22T15:45:24.953Z,100059.59
2022-10-22T15:47:52.563Z,100053.56
2022-10-22T15:50:20.096Z,100054.41
2022-10-22T15:52:47.615Z,100054.19
2022-10-22T15:55:17.267Z,100060.19
2022-10-22T15:57:45.110Z,100066.53
2022-10-22T16:00:13.688Z,100061.72
2022-10-22T16:02:41.488Z,100067.47
2022-10-22T16:05:09.942Z,100070.41
2022-10-22T16:07:37.507Z,100065.69
2022-10-22T16:10:07.549Z,100069.84
2022-10-22T16:12:36.675Z,100063.16
2022-10-22T16:15:05.223Z,100063.16
2022-10-22T16:17:32.825Z,100059.63
2022-10-22T16:20:00.476Z,100060.47
2022-10-22T16:22:28.111Z,100062.91
2022-10-22T16:24:55.611Z,100072.25
2022-10-22T16:27:23.243Z,100076.44
2022-10-22T16:29:52.175Z,100071.97
2022-10-22T16:32:20.195Z,100077.13
2022-10-22T16:34:47.835Z,100074.06
2022-10-22T16:37:15.410Z,100080.03
2022-10-22T16:39:43.049Z,100082.25
2022-10-22T16:42:10.576Z,100077.53
2022-10-22T16:44:38.235Z,100078.66
2022-10-22T16:47:07.205Z,100074.78
2022-10-22T16:49:37.144Z,100073.22
2022-10-22T16:52:05.275Z,100081.22
2022-10-22T16:54:32.828Z,100086.47
2022-10-22T16:57:00.403Z,100084.69
2022-10-22T16:59:28.041Z,100095.75
2022-10-22T17:01:55.802Z,100089.50
2022-10-22T17:04:25.007Z,100095.13
2022-10-22T17:06:52.807Z,100093.66
2022-10-22T17:09:20.596Z,100102.63
2022-10-22T17:11:48.299Z,100105.53
2022-10-22T17:14:15.934Z,100106.22
2022-10-22T17:16:44.773Z,100106.44
2022-10-22T17:19:17.397Z,100109.38
2022-10-22T17:21:46.418Z,100122.59
2022-10-22T17:24:14.036Z,100122.00
2022-10-22T17:26:41.636Z,100119.38
2022-10-22T17:29:09.198Z,100124.03
2022-10-22T17:31:37.988Z,100123.03
2022-10-22T17:34:06.811Z,100131.59
2022-10-22T17:36:37.110Z,100124.31
2022-10-22T17:39:08.151Z,100129.25
2022-10-22T17:41:37.926Z,100135.34
2022-10-22T17:44:08.744Z,100131.00
2022-10-22T17:46:36.600Z,100132.28
2022-10-22T17:49:06.868Z,100135.19
2022-10-22T17:51:34.680Z,100128.13
2022-10-22T17:54:04.627Z,100136.44
2022-10-22T17:56:36.989Z,100143.31
2022-10-22T17:59:04.710Z,100137.97
2022-10-22T18:01:34.803Z,100144.63
2022-10-22T18:04:05.682Z,100152.56
2022-10-22T18:06:34.477Z,100152.56
2022-10-22T18:09:05.005Z,100157.81
2022-10-22T18:11:32.913Z,100149.50
2022-10-22T18:14:01.931Z,100151.81
2022-10-22T18:16:29.610Z,100150.97
2022-10-22T18:18:58.423Z,100154.13
2022-10-22T18:21:28.588Z,100153.88
2022-10-22T18:23:57.679Z,100148.25
2022-10-22T18:26:26.933Z,100151.13
2022-10-22T18:28:55.163Z,100158.78
2022-10-22T18:31:25.753Z,100157.75
2022-10-22T18:36:28.066Z,100154.31
2022-10-22T18:38:58.674Z,100155.22
2022-10-22T18:41:27.582Z,100156.63
2022-10-22T18:43:56.890Z,100152.06
2022-10-22T18:46:26.387Z,100147.72
2022-10-22T18:48:54.249Z,100160.63
2022-10-22T18:51:22.253Z,100154.00
2022-10-22T18:54:04.526Z,100145.28
2022-10-22T18:56:39.737Z,100141.72
2022-10-22T18:59:07.395Z,100139.28
2022-10-22T19:01:36.364Z,100147.25
2022-10-22T19:04:03.943Z,100152.47
2022-10-22T19:06:34.440Z,100143.41
2022-10-22T19:09:05.069Z,100152.13
2022-10-22T19:11:33.837Z,100150.75
2022-10-22T19:14:01.490Z,100146.84
2022-10-22T19:16:29.189Z,100141.06
2022-10-22T19:19:03.090Z,100143.97
2022-10-22T19:21:31.131Z,100149.81
2022-10-22T19:23:59.237Z,100137.97
2022-10-22T19:26:28.534Z,100151.00
2022-10-22T19:28:56.992Z,100143.59
2022-10-22T19:31:26.584Z,100149.84
2022-10-22T19:33:55.456Z,100154.41
2022-10-22T19:36:27.482Z,100145.75
2022-10-22T19:38:55.584Z,100152.22
2022-10-22T19:41:24.940Z,100151.66
2022-10-22T19:43:54.463Z,100153.16
2022-10-22T19:46:23.431Z,100157.94
2022-10-22T19:48:52.295Z,100161.28
2022-10-22T19:51:21.750Z,100164.41
2022-10-22T19:53:51.633Z,100161.50
2022-10-22T19:56:21.197Z,100160.53
2022-10-22T19:58:49.049Z,100162.78
2022-10-22T20:01:18.372Z,100162.41
2022-10-22T20:03:46.640Z,100159.28
2022-10-22T20:06:18.199Z,100158.66
2022-10-22T20:08:46.747Z,100156.31
2022-10-22T20:11:19.891Z,100156.78
2022-10-22T20:13:51.441Z,100162.78
2022-10-22T20:16:23.512Z,100170.06
2022-10-22T20:18:51.100Z,100157.41
2022-10-22T20:21:19.992Z,100155.56
2022-10-22T20:23:48.625Z,100167.78
2022-10-22T20:26:17.711Z,100159.09
2022-10-22T20:28:45.334Z,100159.94
2022-10-22T20:31:14.209Z,100161.59
2022-10-22T20:33:41.903Z,100171.09
2022-10-22T20:36:14.157Z,100180.03
2022-10-22T20:38:41.713Z,100178.66
2022-10-22T20:41:12.349Z,100177.63
2022-10-22T20:43:41.234Z,100168.31
2022-10-22T20:46:08.860Z,100183.28
2022-10-22T20:48:36.412Z,100177.28
2022-10-22T20:51:04.881Z,100180.81
2022-10-22T20:53:32.581Z,100180.19
2022-10-22T20:56:00.179Z,100177.06
2022-10-22T20:58:30.542Z,100173.72
2022-10-22T21:01:05.344Z,100167.09
2022-10-22T21:06:01.483Z,100158.38
2022-10-22T21:08:29.070Z,100150.94
2022-10-22T21:10:56.551Z,100151.53
2022-10-22T21:13:24.106Z,100158.38
2022-10-22T21:15:51.764Z,100159.84
2022-10-22T21:18:20.623Z,100155.72
2022-10-22T21:20:48.230Z,100168.16
2022-10-22T21:23:16.041Z,100161.13
2022-10-22T21:25:54.765Z,100162.00
2022-10-22T21:28:22.527Z,100157.81
2022-10-22T21:30:50.253Z,100157.03
2022-10-22T21:33:17.854Z,100164.25
2022-10-22T21:35:52.778Z,100161.56
2022-10-22T21:38:22.259Z,100158.03
2022-10-22T21:40:50.146Z,100156.19
2022-10-22T21:43:18.576Z,100155.13
2022-10-22T21:45:46.388Z,100153.13
2022-10-22T21:48:14.604Z,100158.91
2022-10-22T21:50:43.677Z,100165.09
2022-10-22T21:53:13.257Z,100157.03
2022-10-22T21:55:41.499Z,100158.09
2022-10-22T21:58:09.211Z,100153.13
2022-10-22T22:00:37.150Z,100161.00
2022-10-22T22:03:07.646Z,100161.38
2022-10-22T22:05:35.264Z,100163.47
2022-10-22T22:08:02.897Z,100165.13
2022-10-22T22:10:32.157Z,100167.81
2022-10-22T22:12:59.805Z,100173.22
2022-10-22T22:15:28.468Z,100176.31
2022-10-22T22:17:56.011Z,100182.72
2022-10-22T22:20:23.708Z,100168.66
2022-10-22T22:22:51.299Z,100176.53
2022-10-22T22:25:18.934Z,100171.13
2022-10-22T22:27:47.968Z,100173.81
2022-10-22T22:30:17.801Z,100180.03
2022-10-22T22:32:45.399Z,100175.06
2022-10-22T22:35:12.973Z,100175.50
2022-10-22T22:37:41.206Z,100173.41
2022-10-22T22:40:09.929Z,100176.94
2022-10-22T22:42:37.611Z,100176.53
2022-10-22T22:45:07.349Z,100165.97
2022-10-22T22:47:34.961Z,100162.66
2022-10-22T22:50:02.618Z,100157.88
2022-10-22T22:52:30.142Z,100153.13
2022-10-22T22:54:57.719Z,100142.78
2022-10-22T22:57:25.381Z,100148.38
2022-10-22T22:59:53.294Z,100142.56
2022-10-22T23:02:22.243Z,100136.16
2022-10-22T23:04:49.834Z,100140.09
2022-10-22T23:07:17.419Z,100136.78
2022-10-22T23:09:45.093Z,100138.22
2022-10-22T23:12:12.664Z,100138.44
2022-10-22T23:14:40.250Z,100140.09
2022-10-22T23:17:07.833Z,100143.41
2022-10-22T23:19:36.728Z,100129.31
2022-10-22T23:22:04.266Z,100121.69
2022-10-22T23:24:31.891Z,100114.84
2022-10-22T23:27:02.256Z,100125.81
2022-10-22T23:29:31.814Z,100118.78
2022-10-22T23:32:01.849Z,100125.00
2022-10-22T23:34:30.365Z,100116.91
2022-10-22T23:37:00.437Z,100120.25
2022-10-22T23:39:29.680Z,100129.13
2022-10-22T23:41:57.935Z,100128.91
2022-10-22T23:44:26.098Z,100122.09
2022-10-22T23:46:53.619Z,100114.44
2022-10-22T23:49:21.154Z,100118.75
2022-10-22T23:51:48.703Z,100113.00
2022-10-22T23:54:18.728Z,100117.53
2022-10-22T23:56:46.828Z,100126.41
